sensor_id;sensor_type;location;lat;lon;timestamp;P1;durP1;ratioP1;P2;durP2;ratioP2
6356;SDS011;3211;53.452;-2.264;2023-02-28T00:02:44;2.67;;;1.70;;
6356;SDS011;3211;53.452;-2.264;2023-02-28T00:05:30;1.80;;;1.70;;
6356;SDS011;3211;53.452;-2.264;2023-02-28T00:08:16;2.70;;;1.50;;
6356;SDS011;3211;53.452;-2.264;2023-02-28T00:10:43;3.20;;;1.80;;
6356;SDS011;3211;53.452;-2.264;2023-02-28T00:13:10;4.27;;;2.00;;
6356;SDS011;3211;53.452;-2.264;2023-02-28T00:15:39;1.77;;;1.50;;
6356;SDS011;3211;53.452;-2.264;2023-02-28T00:18:06;1.80;;;1.70;;
6356;SDS011;3211;53.452;-2.264;2023-02-28T00:20:33;2.60;;;2.10;;
6356;SDS011;3211;53.452;-2.264;2023-02-28T00:23:00;2.53;;;2.00;;
6356;SDS011;3211;53.452;-2.264;2023-02-28T00:25:27;6.07;;;1.97;;
6356;SDS011;3211;53.452;-2.264;2023-02-28T00:27:54;3.77;;;1.90;;
6356;SDS011;3211;53.452;-2.264;2023-02-28T00:30:21;4.20;;;1.77;;
6356;SDS011;3211;53.452;-2.264;2023-02-28T00:32:50;5.30;;;1.87;;
6356;SDS011;3211;53.452;-2.264;2023-02-28T00:35:17;2.17;;;1.80;;
6356;SDS011;3211;53.452;-2.264;2023-02-28T00:37:44;1.90;;;1.80;;
6356;SDS011;3211;53.452;-2.264;2023-02-28T00:40:11;1.90;;;1.80;;
6356;SDS011;3211;53.452;-2.264;2023-02-28T00:42:38;2.10;;;1.70;;
6356;SDS011;3211;53.452;-2.264;2023-02-28T00:45:06;2.87;;;1.90;;
6356;SDS011;3211;53.452;-2.264;2023-02-28T00:47:34;2.53;;;1.40;;
6356;SDS011;3211;53.452;-2.264;2023-02-28T00:50:02;1.90;;;1.70;;
6356;SDS011;3211;53.452;-2.264;2023-02-28T00:52:30;4.70;;;2.00;;
6356;SDS011;3211;53.452;-2.264;2023-02-28T00:54:57;2.53;;;1.93;;
6356;SDS011;3211;53.452;-2.264;2023-02-28T00:57:24;2.90;;;1.97;;
6356;SDS011;3211;53.452;-2.264;2023-02-28T00:59:51;3.93;;;2.40;;
6356;SDS011;3211;53.452;-2.264;2023-02-28T01:02:19;1.80;;;1.70;;
6356;SDS011;3211;53.452;-2.264;2023-02-28T01:04:46;7.10;;;2.23;;
6356;SDS011;3211;53.452;-2.264;2023-02-28T01:07:15;2.30;;;2.00;;
6356;SDS011;3211;53.452;-2.264;2023-02-28T01:09:41;3.50;;;1.87;;
6356;SDS011;3211;53.452;-2.264;2023-02-28T01:12:08;3.20;;;1.90;;
6356;SDS011;3211;53.452;-2.264;2023-02-28T01:14:36;2.20;;;2.00;;
6356;SDS011;3211;53.452;-2.264;2023-02-28T01:17:03;3.00;;;2.77;;
6356;SDS011;3211;53.452;-2.264;2023-02-28T01:19:30;2.23;;;1.77;;
6356;SDS011;3211;53.452;-2.264;2023-02-28T01:21:56;2.33;;;1.80;;
6356;SDS011;3211;53.452;-2.264;2023-02-28T01:24:28;2.17;;;1.87;;
6356;SDS011;3211;53.452;-2.264;2023-02-28T01:26:54;3.67;;;2.03;;
6356;SDS011;3211;53.452;-2.264;2023-02-28T01:29:22;2.43;;;1.90;;
6356;SDS011;3211;53.452;-2.264;2023-02-28T01:31:48;5.43;;;1.97;;
6356;SDS011;3211;53.452;-2.264;2023-02-28T01:34:15;2.17;;;1.97;;
6356;SDS011;3211;53.452;-2.264;2023-02-28T01:36:44;2.00;;;1.70;;
6356;SDS011;3211;53.452;-2.264;2023-02-28T01:39:11;3.30;;;1.90;;
6356;SDS011;3211;53.452;-2.264;2023-02-28T01:41:40;2.87;;;1.80;;
6356;SDS011;3211;53.452;-2.264;2023-02-28T01:47:08;3.10;;;2.03;;
6356;SDS011;3211;53.452;-2.264;2023-02-28T01:49:35;6.00;;;2.10;;
6356;SDS011;3211;53.452;-2.264;2023-02-28T01:52:02;3.07;;;2.07;;
6356;SDS011;3211;53.452;-2.264;2023-02-28T01:54:31;2.83;;;2.10;;
6356;SDS011;3211;53.452;-2.264;2023-02-28T01:57:01;2.33;;;2.00;;
6356;SDS011;3211;53.452;-2.264;2023-02-28T01:59:31;3.73;;;2.60;;
6356;SDS011;3211;53.452;-2.264;2023-02-28T02:02:03;3.20;;;2.10;;
6356;SDS011;3211;53.452;-2.264;2023-02-28T02:04:32;3.17;;;2.47;;
6356;SDS011;3211;53.452;-2.264;2023-02-28T02:07:06;2.83;;;2.47;;
6356;SDS011;3211;53.452;-2.264;2023-02-28T02:09:34;2.70;;;2.50;;
6356;SDS011;3211;53.452;-2.264;2023-02-28T02:12:03;2.43;;;2.10;;
6356;SDS011;3211;53.452;-2.264;2023-02-28T02:14:42;2.57;;;2.37;;
6356;SDS011;3211;53.452;-2.264;2023-02-28T02:17:22;3.07;;;2.77;;
6356;SDS011;3211;53.452;-2.264;2023-02-28T02:20:09;4.03;;;2.80;;
6356;SDS011;3211;53.452;-2.264;2023-02-28T02:26:13;3.43;;;2.60;;
6356;SDS011;3211;53.452;-2.264;2023-02-28T02:29:09;3.00;;;2.73;;
6356;SDS011;3211;53.452;-2.264;2023-02-28T02:32:04;3.00;;;2.50;;
6356;SDS011;3211;53.452;-2.264;2023-02-28T02:34:55;4.03;;;2.90;;
6356;SDS011;3211;53.452;-2.264;2023-02-28T02:37:29;3.03;;;2.73;;
6356;SDS011;3211;53.452;-2.264;2023-02-28T02:40:07;2.17;;;1.97;;
6356;SDS011;3211;53.452;-2.264;2023-02-28T02:42:41;2.30;;;2.10;;
6356;SDS011;3211;53.452;-2.264;2023-02-28T02:45:15;2.90;;;2.57;;
6356;SDS011;3211;53.452;-2.264;2023-02-28T02:47:45;2.80;;;2.60;;
6356;SDS011;3211;53.452;-2.264;2023-02-28T02:50:15;3.40;;;2.47;;
6356;SDS011;3211;53.452;-2.264;2023-02-28T02:52:46;2.40;;;2.20;;
6356;SDS011;3211;53.452;-2.264;2023-02-28T02:55:18;3.20;;;2.80;;
6356;SDS011;3211;53.452;-2.264;2023-02-28T02:57:47;2.97;;;2.60;;
6356;SDS011;3211;53.452;-2.264;2023-02-28T03:00:18;3.20;;;2.87;;
6356;SDS011;3211;53.452;-2.264;2023-02-28T03:02:49;2.93;;;2.40;;
6356;SDS011;3211;53.452;-2.264;2023-02-28T03:05:21;3.93;;;2.90;;
6356;SDS011;3211;53.452;-2.264;2023-02-28T03:07:52;3.80;;;2.53;;
6356;SDS011;3211;53.452;-2.264;2023-02-28T03:10:26;4.27;;;2.60;;
6356;SDS011;3211;53.452;-2.264;2023-02-28T03:12:59;4.07;;;2.33;;
6356;SDS011;3211;53.452;-2.264;2023-02-28T03:15:36;3.27;;;2.97;;
6356;SDS011;3211;53.452;-2.264;2023-02-28T03:18:15;3.07;;;2.30;;
6356;SDS011;3211;53.452;-2.264;2023-02-28T03:20:53;3.03;;;2.10;;
6356;SDS011;3211;53.452;-2.264;2023-02-28T03:23:29;3.03;;;2.30;;
6356;SDS011;3211;53.452;-2.264;2023-02-28T03:26:06;3.00;;;2.70;;
6356;SDS011;3211;53.452;-2.264;2023-02-28T03:28:39;3.10;;;2.20;;
6356;SDS011;3211;53.452;-2.264;2023-02-28T03:31:14;3.00;;;2.80;;
6356;SDS011;3211;53.452;-2.264;2023-02-28T03:33:46;4.23;;;3.00;;
6356;SDS011;3211;53.452;-2.264;2023-02-28T03:36:21;2.83;;;2.63;;
6356;SDS011;3211;53.452;-2.264;2023-02-28T03:38:53;3.90;;;2.50;;
6356;SDS011;3211;53.452;-2.264;2023-02-28T03:41:27;3.17;;;2.87;;
6356;SDS011;3211;53.452;-2.264;2023-02-28T03:44:00;2.70;;;2.50;;
6356;SDS011;3211;53.452;-2.264;2023-02-28T03:46:34;6.23;;;2.83;;
6356;SDS011;3211;53.452;-2.264;2023-02-28T03:49:06;4.13;;;2.50;;
6356;SDS011;3211;53.452;-2.264;2023-02-28T03:51:39;3.43;;;3.10;;
6356;SDS011;3211;53.452;-2.264;2023-02-28T03:54:08;2.60;;;2.40;;
6356;SDS011;3211;53.452;-2.264;2023-02-28T03:56:40;3.60;;;2.30;;
6356;SDS011;3211;53.452;-2.264;2023-02-28T03:59:13;3.03;;;2.70;;
6356;SDS011;3211;53.452;-2.264;2023-02-28T04:01:44;3.67;;;2.80;;
6356;SDS011;3211;53.452;-2.264;2023-02-28T04:04:14;2.67;;;2.47;;
6356;SDS011;3211;53.452;-2.264;2023-02-28T04:06:44;6.27;;;2.90;;
6356;SDS011;3211;53.452;-2.264;2023-02-28T04:09:12;3.23;;;2.87;;
6356;SDS011;3211;53.452;-2.264;2023-02-28T04:11:40;3.77;;;3.30;;
6356;SDS011;3211;53.452;-2.264;2023-02-28T04:14:10;3.40;;;3.10;;
6356;SDS011;3211;53.452;-2.264;2023-02-28T04:16:38;4.17;;;3.40;;
6356;SDS011;3211;53.452;-2.264;2023-02-28T04:19:07;3.40;;;3.07;;
6356;SDS011;3211;53.452;-2.264;2023-02-28T04:21:35;3.50;;;3.20;;
6356;SDS011;3211;53.452;-2.264;2023-02-28T04:24:06;3.77;;;3.33;;
6356;SDS011;3211;53.452;-2.264;2023-02-28T04:26:34;3.27;;;2.97;;
6356;SDS011;3211;53.452;-2.264;2023-02-28T04:29:03;5.83;;;3.27;;
6356;SDS011;3211;53.452;-2.264;2023-02-28T04:31:30;4.00;;;3.03;;
6356;SDS011;3211;53.452;-2.264;2023-02-28T04:33:57;3.27;;;2.90;;
6356;SDS011;3211;53.452;-2.264;2023-02-28T04:36:24;3.40;;;3.03;;
6356;SDS011;3211;53.452;-2.264;2023-02-28T04:38:51;3.87;;;2.70;;
6356;SDS011;3211;53.452;-2.264;2023-02-28T04:41:20;2.90;;;2.50;;
6356;SDS011;3211;53.452;-2.264;2023-02-28T04:43:48;4.33;;;3.20;;
6356;SDS011;3211;53.452;-2.264;2023-02-28T04:46:15;4.23;;;3.20;;
6356;SDS011;3211;53.452;-2.264;2023-02-28T04:48:43;6.10;;;2.63;;
6356;SDS011;3211;53.452;-2.264;2023-02-28T04:51:11;5.43;;;2.60;;
6356;SDS011;3211;53.452;-2.264;2023-02-28T04:53:40;2.77;;;2.20;;
6356;SDS011;3211;53.452;-2.264;2023-02-28T04:56:08;4.60;;;2.37;;
6356;SDS011;3211;53.452;-2.264;2023-02-28T04:58:39;3.20;;;2.90;;
6356;SDS011;3211;53.452;-2.264;2023-02-28T05:01:07;2.90;;;2.60;;
6356;SDS011;3211;53.452;-2.264;2023-02-28T05:03:43;3.80;;;2.77;;
6356;SDS011;3211;53.452;-2.264;2023-02-28T05:06:11;2.43;;;2.23;;
6356;SDS011;3211;53.452;-2.264;2023-02-28T05:08:38;2.83;;;2.57;;
6356;SDS011;3211;53.452;-2.264;2023-02-28T05:11:06;2.80;;;2.40;;
6356;SDS011;3211;53.452;-2.264;2023-02-28T05:13:44;3.50;;;2.50;;
6356;SDS011;3211;53.452;-2.264;2023-02-28T05:16:11;2.60;;;2.40;;
6356;SDS011;3211;53.452;-2.264;2023-02-28T05:18:38;3.20;;;2.47;;
6356;SDS011;3211;53.452;-2.264;2023-02-28T05:21:05;2.43;;;1.97;;
6356;SDS011;3211;53.452;-2.264;2023-02-28T05:23:32;4.20;;;1.90;;
6356;SDS011;3211;53.452;-2.264;2023-02-28T05:25:59;2.10;;;1.90;;
6356;SDS011;3211;53.452;-2.264;2023-02-28T05:28:26;1.80;;;1.70;;
6356;SDS011;3211;53.452;-2.264;2023-02-28T05:30:54;2.47;;;2.27;;
6356;SDS011;3211;53.452;-2.264;2023-02-28T05:33:21;1.53;;;1.40;;
6356;SDS011;3211;53.452;-2.264;2023-02-28T05:35:48;2.00;;;1.80;;
6356;SDS011;3211;53.452;-2.264;2023-02-28T05:38:15;2.13;;;1.80;;
6356;SDS011;3211;53.452;-2.264;2023-02-28T05:40:42;1.57;;;1.47;;
6356;SDS011;3211;53.452;-2.264;2023-02-28T05:43:10;1.50;;;1.40;;
6356;SDS011;3211;53.452;-2.264;2023-02-28T05:45:38;1.83;;;1.70;;
6356;SDS011;3211;53.452;-2.264;2023-02-28T05:48:06;2.17;;;1.60;;
6356;SDS011;3211;53.452;-2.264;2023-02-28T05:50:34;1.30;;;1.20;;
6356;SDS011;3211;53.452;-2.264;2023-02-28T05:53:01;1.97;;;1.20;;
6356;SDS011;3211;53.452;-2.264;2023-02-28T05:55:28;1.90;;;1.23;;
6356;SDS011;3211;53.452;-2.264;2023-02-28T05:57:55;1.20;;;1.10;;
6356;SDS011;3211;53.452;-2.264;2023-02-28T06:00:22;1.40;;;1.30;;
6356;SDS011;3211;53.452;-2.264;2023-02-28T06:03:09;1.10;;;1.00;;
6356;SDS011;3211;53.452;-2.264;2023-02-28T06:05:38;1.37;;;1.13;;
6356;SDS011;3211;53.452;-2.264;2023-02-28T06:08:05;1.40;;;1.30;;
6356;SDS011;3211;53.452;-2.264;2023-02-28T06:10:32;1.53;;;1.37;;
6356;SDS011;3211;53.452;-2.264;2023-02-28T06:12:59;1.30;;;1.20;;
6356;SDS011;3211;53.452;-2.264;2023-02-28T06:15:27;1.50;;;1.20;;
6356;SDS011;3211;53.452;-2.264;2023-02-28T06:17:55;1.40;;;1.30;;
6356;SDS011;3211;53.452;-2.264;2023-02-28T06:20:24;1.17;;;1.07;;
6356;SDS011;3211;53.452;-2.264;2023-02-28T06:22:54;1.43;;;1.33;;
6356;SDS011;3211;53.452;-2.264;2023-02-28T06:25:23;1.80;;;1.60;;
6356;SDS011;3211;53.452;-2.264;2023-02-28T06:27:50;2.43;;;1.60;;
6356;SDS011;3211;53.452;-2.264;2023-02-28T06:30:17;1.40;;;1.30;;
6356;SDS011;3211;53.452;-2.264;2023-02-28T06:32:48;1.63;;;1.40;;
6356;SDS011;3211;53.452;-2.264;2023-02-28T06:35:15;1.60;;;1.50;;
6356;SDS011;3211;53.452;-2.264;2023-02-28T06:37:44;2.90;;;1.80;;
6356;SDS011;3211;53.452;-2.264;2023-02-28T06:40:12;1.70;;;1.60;;
6356;SDS011;3211;53.452;-2.264;2023-02-28T06:42:39;3.00;;;1.87;;
6356;SDS011;3211;53.452;-2.264;2023-02-28T06:45:07;2.43;;;1.70;;
6356;SDS011;3211;53.452;-2.264;2023-02-28T06:47:35;1.60;;;1.50;;
6356;SDS011;3211;53.452;-2.264;2023-02-28T06:50:02;1.83;;;1.60;;
6356;SDS011;3211;53.452;-2.264;2023-02-28T06:52:29;2.87;;;1.70;;
6356;SDS011;3211;53.452;-2.264;2023-02-28T06:54:58;2.27;;;2.00;;
6356;SDS011;3211;53.452;-2.264;2023-02-28T06:57:27;1.70;;;1.60;;
6356;SDS011;3211;53.452;-2.264;2023-02-28T06:59:56;1.50;;;1.40;;
6356;SDS011;3211;53.452;-2.264;2023-02-28T07:02:23;2.90;;;1.70;;
6356;SDS011;3211;53.452;-2.264;2023-02-28T07:04:50;1.93;;;1.50;;
6356;SDS011;3211;53.452;-2.264;2023-02-28T07:07:17;2.70;;;1.43;;
6356;SDS011;3211;53.452;-2.264;2023-02-28T07:09:44;5.30;;;1.70;;
6356;SDS011;3211;53.452;-2.264;2023-02-28T07:12:12;2.20;;;1.50;;
6356;SDS011;3211;53.452;-2.264;2023-02-28T07:14:39;3.90;;;1.80;;
6356;SDS011;3211;53.452;-2.264;2023-02-28T07:17:06;1.90;;;1.80;;
6356;SDS011;3211;53.452;-2.264;2023-02-28T07:19:35;3.03;;;1.50;;
6356;SDS011;3211;53.452;-2.264;2023-02-28T07:22:02;5.63;;;1.87;;
6356;SDS011;3211;53.452;-2.264;2023-02-28T07:24:30;1.70;;;1.60;;
6356;SDS011;3211;53.452;-2.264;2023-02-28T07:26:57;1.70;;;1.60;;
6356;SDS011;3211;53.452;-2.264;2023-02-28T07:29:25;1.80;;;1.70;;
6356;SDS011;3211;53.452;-2.264;2023-02-28T07:31:52;1.60;;;1.50;;
6356;SDS011;3211;53.452;-2.264;2023-02-28T07:34:19;3.50;;;1.57;;
6356;SDS011;3211;53.452;-2.264;2023-02-28T07:36:47;4.00;;;2.20;;
6356;SDS011;3211;53.452;-2.264;2023-02-28T07:39:18;3.10;;;2.17;;
6356;SDS011;3211;53.452;-2.264;2023-02-28T07:41:45;1.90;;;1.70;;
6356;SDS011;3211;53.452;-2.264;2023-02-28T07:44:12;2.83;;;2.20;;
6356;SDS011;3211;53.452;-2.264;2023-02-28T07:46:41;2.47;;;1.80;;
6356;SDS011;3211;53.452;-2.264;2023-02-28T07:49:08;4.37;;;1.73;;
6356;SDS011;3211;53.452;-2.264;2023-02-28T07:51:35;2.27;;;1.80;;
6356;SDS011;3211;53.452;-2.264;2023-02-28T07:54:02;3.77;;;2.13;;
6356;SDS011;3211;53.452;-2.264;2023-02-28T07:56:29;2.40;;;1.57;;
6356;SDS011;3211;53.452;-2.264;2023-02-28T07:58:56;1.67;;;1.57;;
6356;SDS011;3211;53.452;-2.264;2023-02-28T08:01:23;3.57;;;2.00;;
6356;SDS011;3211;53.452;-2.264;2023-02-28T08:03:51;2.10;;;1.90;;
6356;SDS011;3211;53.452;-2.264;2023-02-28T08:06:20;1.93;;;1.73;;
6356;SDS011;3211;53.452;-2.264;2023-02-28T08:08:48;2.50;;;1.60;;
6356;SDS011;3211;53.452;-2.264;2023-02-28T08:11:16;1.73;;;1.60;;
6356;SDS011;3211;53.452;-2.264;2023-02-28T08:13:44;4.27;;;1.83;;
6356;SDS011;3211;53.452;-2.264;2023-02-28T08:16:12;2.97;;;1.63;;
6356;SDS011;3211;53.452;-2.264;2023-02-28T08:18:42;1.97;;;1.77;;
6356;SDS011;3211;53.452;-2.264;2023-02-28T08:21:10;3.07;;;1.57;;
6356;SDS011;3211;53.452;-2.264;2023-02-28T08:23:40;2.63;;;2.00;;
6356;SDS011;3211;53.452;-2.264;2023-02-28T08:26:15;5.40;;;1.87;;
6356;SDS011;3211;53.452;-2.264;2023-02-28T08:28:51;8.10;;;2.20;;
6356;SDS011;3211;53.452;-2.264;2023-02-28T08:31:27;2.63;;;2.00;;
6356;SDS011;3211;53.452;-2.264;2023-02-28T08:34:04;2.30;;;1.67;;
6356;SDS011;3211;53.452;-2.264;2023-02-28T08:36:41;3.87;;;2.33;;
6356;SDS011;3211;53.452;-2.264;2023-02-28T08:39:12;3.30;;;1.60;;
6356;SDS011;3211;53.452;-2.264;2023-02-28T08:41:52;9.30;;;1.83;;
6356;SDS011;3211;53.452;-2.264;2023-02-28T08:44:41;1.43;;;1.33;;
6356;SDS011;3211;53.452;-2.264;2023-02-28T08:47:12;1.93;;;1.63;;
6356;SDS011;3211;53.452;-2.264;2023-02-28T08:49:46;1.90;;;1.70;;
6356;SDS011;3211;53.452;-2.264;2023-02-28T08:52:16;3.80;;;1.47;;
6356;SDS011;3211;53.452;-2.264;2023-02-28T08:54:56;2.90;;;1.60;;
6356;SDS011;3211;53.452;-2.264;2023-02-28T08:57:34;2.27;;;1.43;;
6356;SDS011;3211;53.452;-2.264;2023-02-28T09:00:13;6.90;;;2.10;;
6356;SDS011;3211;53.452;-2.264;2023-02-28T09:02:54;3.17;;;1.60;;
6356;SDS011;3211;53.452;-2.264;2023-02-28T09:08:20;2.17;;;1.50;;
6356;SDS011;3211;53.452;-2.264;2023-02-28T09:10:47;1.57;;;1.47;;
6356;SDS011;3211;53.452;-2.264;2023-02-28T09:13:22;2.70;;;1.27;;
6356;SDS011;3211;53.452;-2.264;2023-02-28T09:15:58;3.00;;;1.57;;
6356;SDS011;3211;53.452;-2.264;2023-02-28T09:18:54;5.53;;;1.60;;
6356;SDS011;3211;53.452;-2.264;2023-02-28T09:21:32;2.13;;;1.50;;
6356;SDS011;3211;53.452;-2.264;2023-02-28T09:24:07;1.43;;;1.30;;
6356;SDS011;3211;53.452;-2.264;2023-02-28T09:26:40;1.40;;;1.20;;
6356;SDS011;3211;53.452;-2.264;2023-02-28T09:29:08;3.03;;;1.50;;
6356;SDS011;3211;53.452;-2.264;2023-02-28T09:31:52;2.27;;;1.40;;
6356;SDS011;3211;53.452;-2.264;2023-02-28T09:34:22;2.03;;;1.20;;
6356;SDS011;3211;53.452;-2.264;2023-02-28T09:37:13;1.50;;;1.40;;
6356;SDS011;3211;53.452;-2.264;2023-02-28T09:40:00;2.13;;;1.30;;
6356;SDS011;3211;53.452;-2.264;2023-02-28T09:42:32;1.30;;;1.20;;
6356;SDS011;3211;53.452;-2.264;2023-02-28T09:45:22;4.40;;;1.30;;
6356;SDS011;3211;53.452;-2.264;2023-02-28T09:48:01;1.53;;;1.20;;
6356;SDS011;3211;53.452;-2.264;2023-02-28T09:50:36;2.40;;;1.23;;
6356;SDS011;3211;53.452;-2.264;2023-02-28T09:53:11;2.20;;;1.50;;
6356;SDS011;3211;53.452;-2.264;2023-02-28T09:55:47;2.33;;;1.30;;
6356;SDS011;3211;53.452;-2.264;2023-02-28T09:58:23;1.70;;;1.30;;
6356;SDS011;3211;53.452;-2.264;2023-02-28T10:00:57;1.60;;;1.20;;
6356;SDS011;3211;53.452;-2.264;2023-02-28T10:03:36;1.93;;;1.30;;
6356;SDS011;3211;53.452;-2.264;2023-02-28T10:06:17;1.67;;;1.17;;
6356;SDS011;3211;53.452;-2.264;2023-02-28T10:08:55;2.63;;;1.30;;
6356;SDS011;3211;53.452;-2.264;2023-02-28T10:11:33;2.23;;;1.60;;
6356;SDS011;3211;53.452;-2.264;2023-02-28T10:14:05;2.40;;;1.43;;
6356;SDS011;3211;53.452;-2.264;2023-02-28T10:16:44;1.70;;;1.40;;
6356;SDS011;3211;53.452;-2.264;2023-02-28T10:19:19;3.40;;;1.23;;
6356;SDS011;3211;53.452;-2.264;2023-02-28T10:22:01;2.00;;;1.40;;
6356;SDS011;3211;53.452;-2.264;2023-02-28T10:24:37;2.10;;;1.30;;
6356;SDS011;3211;53.452;-2.264;2023-02-28T10:27:32;3.40;;;1.47;;
6356;SDS011;3211;53.452;-2.264;2023-02-28T10:30:00;1.63;;;1.43;;
6356;SDS011;3211;53.452;-2.264;2023-02-28T10:32:30;1.70;;;1.40;;
6356;SDS011;3211;53.452;-2.264;2023-02-28T10:35:06;2.50;;;1.37;;
6356;SDS011;3211;53.452;-2.264;2023-02-28T10:37:42;1.97;;;1.50;;
6356;SDS011;3211;53.452;-2.264;2023-02-28T10:40:25;2.87;;;1.70;;
6356;SDS011;3211;53.452;-2.264;2023-02-28T10:43:17;3.30;;;1.60;;
6356;SDS011;3211;53.452;-2.264;2023-02-28T10:45:58;1.73;;;1.40;;
6356;SDS011;3211;53.452;-2.264;2023-02-28T10:48:30;2.77;;;1.30;;
6356;SDS011;3211;53.452;-2.264;2023-02-28T10:51:04;1.83;;;1.40;;
6356;SDS011;3211;53.452;-2.264;2023-02-28T10:53:35;2.80;;;1.37;;
6356;SDS011;3211;53.452;-2.264;2023-02-28T10:56:17;2.27;;;1.30;;
6356;SDS011;3211;53.452;-2.264;2023-02-28T10:58:55;1.30;;;1.10;;
6356;SDS011;3211;53.452;-2.264;2023-02-28T11:01:51;1.53;;;1.30;;
6356;SDS011;3211;53.452;-2.264;2023-02-28T11:04:41;2.40;;;1.03;;
6356;SDS011;3211;53.452;-2.264;2023-02-28T11:07:16;3.10;;;1.30;;
6356;SDS011;3211;53.452;-2.264;2023-02-28T11:09:46;2.70;;;1.10;;
6356;SDS011;3211;53.452;-2.264;2023-02-28T11:12:21;1.30;;;1.00;;
6356;SDS011;3211;53.452;-2.264;2023-02-28T11:14:57;1.60;;;1.00;;
6356;SDS011;3211;53.452;-2.264;2023-02-28T11:17:30;3.13;;;1.27;;
6356;SDS011;3211;53.452;-2.264;2023-02-28T11:20:02;1.10;;;1.00;;
6356;SDS011;3211;53.452;-2.264;2023-02-28T11:22:38;1.67;;;1.47;;
6356;SDS011;3211;53.452;-2.264;2023-02-28T11:25:16;2.00;;;1.30;;
6356;SDS011;3211;53.452;-2.264;2023-02-28T11:27:56;1.33;;;1.10;;
6356;SDS011;3211;53.452;-2.264;2023-02-28T11:30:32;1.37;;;0.90;;
6356;SDS011;3211;53.452;-2.264;2023-02-28T11:33:18;1.03;;;0.90;;
6356;SDS011;3211;53.452;-2.264;2023-02-28T11:35:52;1.37;;;1.00;;
6356;SDS011;3211;53.452;-2.264;2023-02-28T11:38:29;1.10;;;0.97;;
6356;SDS011;3211;53.452;-2.264;2023-02-28T11:41:14;2.83;;;1.10;;
6356;SDS011;3211;53.452;-2.264;2023-02-28T11:44:17;1.70;;;1.00;;
6356;SDS011;3211;53.452;-2.264;2023-02-28T11:47:06;3.97;;;1.10;;
6356;SDS011;3211;53.452;-2.264;2023-02-28T11:49:43;3.53;;;1.23;;
6356;SDS011;3211;53.452;-2.264;2023-02-28T11:52:20;2.67;;;1.23;;
6356;SDS011;3211;53.452;-2.264;2023-02-28T11:55:01;3.20;;;1.30;;
6356;SDS011;3211;53.452;-2.264;2023-02-28T11:57:42;1.87;;;1.10;;
6356;SDS011;3211;53.452;-2.264;2023-02-28T12:00:44;1.17;;;1.07;;
6356;SDS011;3211;53.452;-2.264;2023-02-28T12:03:53;1.83;;;1.00;;
6356;SDS011;3211;53.452;-2.264;2023-02-28T12:06:31;1.70;;;1.10;;
6356;SDS011;3211;53.452;-2.264;2023-02-28T12:09:29;2.03;;;1.30;;
6356;SDS011;3211;53.452;-2.264;2023-02-28T12:12:13;1.23;;;1.13;;
6356;SDS011;3211;53.452;-2.264;2023-02-28T12:14:53;1.77;;;1.10;;
6356;SDS011;3211;53.452;-2.264;2023-02-28T12:17:35;4.90;;;1.43;;
6356;SDS011;3211;53.452;-2.264;2023-02-28T12:20:16;1.70;;;1.20;;
6356;SDS011;3211;53.452;-2.264;2023-02-28T12:22:52;1.63;;;1.23;;
6356;SDS011;3211;53.452;-2.264;2023-02-28T12:25:33;2.00;;;1.50;;
6356;SDS011;3211;53.452;-2.264;2023-02-28T12:28:10;1.40;;;1.30;;
6356;SDS011;3211;53.452;-2.264;2023-02-28T12:30:41;4.00;;;1.40;;
6356;SDS011;3211;53.452;-2.264;2023-02-28T12:33:14;1.80;;;1.47;;
6356;SDS011;3211;53.452;-2.264;2023-02-28T12:35:49;2.87;;;1.20;;
6356;SDS011;3211;53.452;-2.264;2023-02-28T12:38:21;1.30;;;1.20;;
6356;SDS011;3211;53.452;-2.264;2023-02-28T12:40:50;3.93;;;1.30;;
6356;SDS011;3211;53.452;-2.264;2023-02-28T12:43:20;1.97;;;1.20;;
6356;SDS011;3211;53.452;-2.264;2023-02-28T12:45:52;2.17;;;1.20;;
6356;SDS011;3211;53.452;-2.264;2023-02-28T12:48:24;2.77;;;1.40;;
6356;SDS011;3211;53.452;-2.264;2023-02-28T12:50:56;1.40;;;1.20;;
6356;SDS011;3211;53.452;-2.264;2023-02-28T12:53:25;1.83;;;1.10;;
6356;SDS011;3211;53.452;-2.264;2023-02-28T12:56:01;1.10;;;1.00;;
6356;SDS011;3211;53.452;-2.264;2023-02-28T12:58:37;2.30;;;1.53;;
6356;SDS011;3211;53.452;-2.264;2023-02-28T13:10:48;2.23;;;1.20;;
6356;SDS011;3211;53.452;-2.264;2023-02-28T13:13:19;2.77;;;1.30;;
6356;SDS011;3211;53.452;-2.264;2023-02-28T13:15:59;1.20;;;1.10;;
6356;SDS011;3211;53.452;-2.264;2023-02-28T13:18:29;1.53;;;1.17;;
6356;SDS011;3211;53.452;-2.264;2023-02-28T13:20:58;3.33;;;1.20;;
6356;SDS011;3211;53.452;-2.264;2023-02-28T13:23:36;1.30;;;1.20;;
6356;SDS011;3211;53.452;-2.264;2023-02-28T13:26:24;9.17;;;1.63;;
6356;SDS011;3211;53.452;-2.264;2023-02-28T13:29:30;2.77;;;1.10;;
6356;SDS011;3211;53.452;-2.264;2023-02-28T13:38:12;2.50;;;1.40;;
6356;SDS011;3211;53.452;-2.264;2023-02-28T13:40:43;1.80;;;1.30;;
6356;SDS011;3211;53.452;-2.264;2023-02-28T13:43:12;2.83;;;1.40;;
6356;SDS011;3211;53.452;-2.264;2023-02-28T13:48:34;2.13;;;1.37;;
6356;SDS011;3211;53.452;-2.264;2023-02-28T13:54:17;1.40;;;1.10;;
6356;SDS011;3211;53.452;-2.264;2023-02-28T13:57:12;1.40;;;1.30;;
6356;SDS011;3211;53.452;-2.264;2023-02-28T13:59:52;2.23;;;1.60;;
6356;SDS011;3211;53.452;-2.264;2023-02-28T14:02:37;1.93;;;1.37;;
6356;SDS011;3211;53.452;-2.264;2023-02-28T14:05:14;1.20;;;1.10;;
6356;SDS011;3211;53.452;-2.264;2023-02-28T14:07:44;1.20;;;1.10;;
6356;SDS011;3211;53.452;-2.264;2023-02-28T14:10:20;1.83;;;1.00;;
6356;SDS011;3211;53.452;-2.264;2023-02-28T14:15:54;2.90;;;1.10;;
6356;SDS011;3211;53.452;-2.264;2023-02-28T14:18:23;2.37;;;1.20;;
6356;SDS011;3211;53.452;-2.264;2023-02-28T14:20:56;1.27;;;1.17;;
6356;SDS011;3211;53.452;-2.264;2023-02-28T14:23:33;4.20;;;1.33;;
6356;SDS011;3211;53.452;-2.264;2023-02-28T14:26:26;2.07;;;1.10;;
6356;SDS011;3211;53.452;-2.264;2023-02-28T14:29:03;4.10;;;1.30;;
6356;SDS011;3211;53.452;-2.264;2023-02-28T14:31:48;1.13;;;1.03;;
6356;SDS011;3211;53.452;-2.264;2023-02-28T14:34:26;4.00;;;1.10;;
6356;SDS011;3211;53.452;-2.264;2023-02-28T14:37:03;4.50;;;1.10;;
6356;SDS011;3211;53.452;-2.264;2023-02-28T14:39:33;2.17;;;1.10;;
6356;SDS011;3211;53.452;-2.264;2023-02-28T14:42:01;2.50;;;1.20;;
6356;SDS011;3211;53.452;-2.264;2023-02-28T14:44:30;1.10;;;1.00;;
6356;SDS011;3211;53.452;-2.264;2023-02-28T14:46:59;1.80;;;1.10;;
6356;SDS011;3211;53.452;-2.264;2023-02-28T14:49:32;1.50;;;1.10;;
6356;SDS011;3211;53.452;-2.264;2023-02-28T14:52:02;1.20;;;1.07;;
6356;SDS011;3211;53.452;-2.264;2023-02-28T14:54:34;1.10;;;1.00;;
6356;SDS011;3211;53.452;-2.264;2023-02-28T14:57:01;1.00;;;0.90;;
6356;SDS011;3211;53.452;-2.264;2023-02-28T14:59:30;1.23;;;1.00;;
6356;SDS011;3211;53.452;-2.264;2023-02-28T15:04:54;5.13;;;1.10;;
6356;SDS011;3211;53.452;-2.264;2023-02-28T15:07:23;2.10;;;1.10;;
6356;SDS011;3211;53.452;-2.264;2023-02-28T15:10:10;1.77;;;1.00;;
6356;SDS011;3211;53.452;-2.264;2023-02-28T15:12:41;2.03;;;1.10;;
6356;SDS011;3211;53.452;-2.264;2023-02-28T15:15:15;3.67;;;1.20;;
6356;SDS011;3211;53.452;-2.264;2023-02-28T15:17:46;2.23;;;1.17;;
6356;SDS011;3211;53.452;-2.264;2023-02-28T15:20:18;3.10;;;1.37;;
6356;SDS011;3211;53.452;-2.264;2023-02-28T15:22:46;1.10;;;0.93;;
6356;SDS011;3211;53.452;-2.264;2023-02-28T15:25:17;1.30;;;1.10;;
6356;SDS011;3211;53.452;-2.264;2023-02-28T15:27:47;2.17;;;1.20;;
6356;SDS011;3211;53.452;-2.264;2023-02-28T15:30:16;5.43;;;1.20;;
6356;SDS011;3211;53.452;-2.264;2023-02-28T15:32:48;1.53;;;1.00;;
6356;SDS011;3211;53.452;-2.264;2023-02-28T15:35:31;2.03;;;1.10;;
6356;SDS011;3211;53.452;-2.264;2023-02-28T15:38:00;4.63;;;1.33;;
6356;SDS011;3211;53.452;-2.264;2023-02-28T15:40:31;2.03;;;1.30;;
6356;SDS011;3211;53.452;-2.264;2023-02-28T15:43:06;2.27;;;1.30;;
6356;SDS011;3211;53.452;-2.264;2023-02-28T15:45:40;1.43;;;1.20;;
6356;SDS011;3211;53.452;-2.264;2023-02-28T15:48:14;2.10;;;1.20;;
6356;SDS011;3211;53.452;-2.264;2023-02-28T15:50:44;4.47;;;1.20;;
6356;SDS011;3211;53.452;-2.264;2023-02-28T15:53:16;2.90;;;1.17;;
6356;SDS011;3211;53.452;-2.264;2023-02-28T15:55:45;5.07;;;1.30;;
6356;SDS011;3211;53.452;-2.264;2023-02-28T15:58:22;2.33;;;1.27;;
6356;SDS011;3211;53.452;-2.264;2023-02-28T16:01:01;1.30;;;1.10;;
6356;SDS011;3211;53.452;-2.264;2023-02-28T16:03:37;2.83;;;1.40;;
6356;SDS011;3211;53.452;-2.264;2023-02-28T16:06:19;1.63;;;1.17;;
6356;SDS011;3211;53.452;-2.264;2023-02-28T16:08:56;1.50;;;1.30;;
6356;SDS011;3211;53.452;-2.264;2023-02-28T16:11:23;5.10;;;1.50;;
6356;SDS011;3211;53.452;-2.264;2023-02-28T16:13:50;2.30;;;1.63;;